Darstellungsparameter: Aktuell verwendete Einstellungen:
Skalierung der Graphiken ... ?
xyx+y,   Skalierungsfaktor:      Skalierung: Modus: x, Faktor: 1
Darstellungszeitraum ... ?
Vom - - bis: - -   Zeitraum: 24.10.2021 - 25.10.2021
Min/Max/Avg-Anzeige ... ?
Zeige MMA aktuell
Zeige MMA Monat
Zeige MMA alles
Zeige --A aktuell
Zeige --A Monat
Zeige --A alles
Keine MMA-Anzeige
MMA:
Keine MMA-Graphiken
MMA-Basis: 24.10.2021 - 25.10.2021
Quicknavigation für Darstellung... ?
Tage:      1T, 2T, 3T, 5T -1T -2T -3T -5T +1T +2T +3T +5T
Wochen: 1W, 2W, 3W -1W -2W -3W +1W +2W +3W
Monate: 1M, 3M, 6M -1M -3M -6M +1M +3M +6M
Jahre:    1J, 3J, 5J, 10J -1J -3J -5J -10J +1J +3J +5J +10J
Nutze für die Darstellung ... ?
Originaldaten oder Mittelwerte auf ...
Stundenbasis Tagesbasis Wochenbasis
Monatsbasis Jahresbasis      Datenbasis: Original-Daten
Darstellen als:
Statistik (Auto) Statistik J:M      Darstellung:
Zur Graphik,    zurück zur Übersicht aller Sensoren.
 
Tabellarische Datenbersicht: ?
 
Sensor: Nr:Datum:Temp:Feuchte:Taupunkt:
Aussen-T/F 1 24-10-2021 02:00:00 3.7 C 96 % 3.12 C
2 24-10-2021 02:05:00 3.8 C 96 % 3.22 C
3 24-10-2021 02:10:00 3.9 C 96 % 3.32 C
4 24-10-2021 02:15:00 4 C 96 % 3.42 C
5 24-10-2021 02:20:00 4.1 C 96 % 3.52 C
6 24-10-2021 02:25:00 4.2 C 96 % 3.62 C
7 24-10-2021 02:30:00 4.3 C 96 % 3.72 C
8 24-10-2021 02:35:00 4.4 C 96 % 3.82 C
9 24-10-2021 02:40:00 4.5 C 96 % 3.92 C
10 24-10-2021 02:45:00 4.6 C 96 % 4.02 C
11 24-10-2021 02:50:00 4.6 C 96 % 4.02 C
12 24-10-2021 02:55:00 4.7 C 96 % 4.12 C
13 24-10-2021 03:00:00 4.6 C 96 % 4.02 C
14 24-10-2021 03:05:00 4.6 C 96 % 4.02 C
15 24-10-2021 03:10:00 4.6 C 96 % 4.02 C
16 24-10-2021 03:15:00 4.6 C 96 % 4.02 C
17 24-10-2021 03:20:00 4.6 C 96 % 4.02 C
18 24-10-2021 03:25:00 4.5 C 96 % 3.92 C
19 24-10-2021 03:30:00 4.4 C 96 % 3.82 C
20 24-10-2021 03:35:00 4.4 C 96 % 3.82 C
21 24-10-2021 03:40:00 4.4 C 96 % 3.82 C
22 24-10-2021 03:45:00 4.4 C 96 % 3.82 C
23 24-10-2021 03:50:00 4.4 C 96 % 3.82 C
24 24-10-2021 03:55:00 4.3 C 96 % 3.72 C
25 24-10-2021 04:00:00 4.3 C 96 % 3.72 C
Sensor: Nr:Datum:Temp:Feuchte:Taupunkt:
Aussen-T/F 26 24-10-2021 04:05:00 4.3 C 96 % 3.72 C
27 24-10-2021 04:10:00 4.2 C 96 % 3.62 C
28 24-10-2021 04:15:00 4.2 C 96 % 3.62 C
29 24-10-2021 04:20:00 4.2 C 96 % 3.62 C
30 24-10-2021 04:25:00 4.2 C 96 % 3.62 C
31 24-10-2021 04:30:00 4.2 C 96 % 3.62 C
32 24-10-2021 04:35:00 4.2 C 96 % 3.62 C
33 24-10-2021 04:40:00 4.1 C 96 % 3.52 C
34 24-10-2021 04:45:00 4.1 C 96 % 3.52 C
35 24-10-2021 04:50:00 4 C 96 % 3.42 C
36 24-10-2021 04:55:00 4 C 96 % 3.42 C
37 24-10-2021 05:00:00 4 C 96 % 3.42 C
38 24-10-2021 05:05:00 4 C 96 % 3.42 C
39 24-10-2021 05:10:00 3.9 C 96 % 3.32 C
40 24-10-2021 05:15:00 3.9 C 96 % 3.32 C
41 24-10-2021 05:20:00 3.8 C 96 % 3.22 C
42 24-10-2021 05:25:00 3.8 C 96 % 3.22 C
43 24-10-2021 05:30:00 3.7 C 96 % 3.12 C
44 24-10-2021 05:35:00 3.6 C 96 % 3.02 C
45 24-10-2021 05:40:00 3.5 C 96 % 2.92 C
46 24-10-2021 05:45:00 3.4 C 96 % 2.82 C
47 24-10-2021 05:50:00 3.3 C 96 % 2.72 C
48 24-10-2021 05:55:00 3.3 C 96 % 2.72 C
49 24-10-2021 06:00:00 3.3 C 96 % 2.72 C
50 24-10-2021 06:05:00 3.2 C 96 % 2.63 C
Sensor: Nr:Datum:Temp:Feuchte:Taupunkt:
Aussen-T/F 51 24-10-2021 06:10:00 3.2 C 96 % 2.63 C
52 24-10-2021 06:15:00 3.1 C 96 % 2.53 C
53 24-10-2021 06:20:00 3.1 C 96 % 2.53 C
54 24-10-2021 06:25:00 3 C 96 % 2.43 C
55 24-10-2021 06:30:00 3 C 96 % 2.43 C
56 24-10-2021 06:35:00 2.9 C 96 % 2.33 C
57 24-10-2021 06:40:00 2.9 C 96 % 2.33 C
58 24-10-2021 06:45:00 2.8 C 96 % 2.23 C
59 24-10-2021 06:50:00 2.8 C 96 % 2.23 C
60 24-10-2021 06:55:00 2.7 C 96 % 2.13 C
61 24-10-2021 07:00:00 2.7 C 96 % 2.13 C
62 24-10-2021 07:05:00 2.7 C 96 % 2.13 C
63 24-10-2021 07:10:00 2.7 C 96 % 2.13 C
64 24-10-2021 07:15:00 2.7 C 96 % 2.13 C
65 24-10-2021 07:20:00 2.6 C 96 % 2.03 C
66 24-10-2021 07:25:00 2.6 C 96 % 2.03 C
67 24-10-2021 07:30:00 2.6 C 96 % 2.03 C
68 24-10-2021 07:35:00 2.5 C 96 % 1.93 C
69 24-10-2021 07:40:00 2.4 C 96 % 1.83 C
70 24-10-2021 07:45:00 2.4 C 96 % 1.83 C
71 24-10-2021 07:50:00 2.4 C 96 % 1.83 C
72 24-10-2021 07:55:00 2.4 C 96 % 1.83 C
73 24-10-2021 08:00:00 2.4 C 96 % 1.83 C
74 24-10-2021 08:05:00 2.4 C 96 % 1.83 C
75 24-10-2021 08:10:00 2.4 C 96 % 1.83 C
Sensor: Nr:Datum:Temp:Feuchte:Taupunkt:
Aussen-T/F 76 24-10-2021 08:15:00 2.3 C 96 % 1.73 C
77 24-10-2021 08:20:00 2.2 C 96 % 1.63 C
78 24-10-2021 08:25:00 2.1 C 96 % 1.53 C
79 24-10-2021 08:30:00 2 C 96 % 1.43 C
80 24-10-2021 08:35:00 1.9 C 96 % 1.33 C
81 24-10-2021 08:40:00 1.8 C 96 % 1.23 C
82 24-10-2021 08:45:00 1.8 C 96 % 1.23 C
83 24-10-2021 08:50:00 1.7 C 96 % 1.13 C
84 24-10-2021 08:55:00 1.6 C 96 % 1.03 C
85 24-10-2021 09:00:00 1.6 C 96 % 1.03 C
86 24-10-2021 09:05:00 1.5 C 96 % 0.93 C
87 24-10-2021 09:10:00 1.5 C 96 % 0.93 C
88 24-10-2021 09:15:00 1.5 C 96 % 0.93 C
89 24-10-2021 09:20:00 1.6 C 96 % 1.03 C
90 24-10-2021 09:25:00 1.6 C 96 % 1.03 C
91 24-10-2021 09:30:00 1.6 C 96 % 1.03 C
92 24-10-2021 09:35:00 1.6 C 96 % 1.03 C
93 24-10-2021 09:40:00 1.6 C 96 % 1.03 C
94 24-10-2021 09:45:00 1.6 C 96 % 1.03 C
95 24-10-2021 09:50:00 1.7 C 96 % 1.13 C
96 24-10-2021 09:55:00 1.7 C 96 % 1.13 C
97 24-10-2021 10:00:00 1.7 C 96 % 1.13 C
98 24-10-2021 10:05:00 1.7 C 96 % 1.13 C
99 24-10-2021 10:10:00 1.8 C 96 % 1.23 C
100 24-10-2021 10:15:00 1.8 C 96 % 1.23 C
Sensor: Nr:Datum:Temp:Feuchte:Taupunkt:
Aussen-T/F 101 24-10-2021 10:20:00 1.8 C 96 % 1.23 C
102 24-10-2021 10:25:00 1.8 C 97 % 1.38 C
103 24-10-2021 10:30:00 1.9 C 97 % 1.48 C
104 24-10-2021 10:35:00 2 C 97 % 1.58 C
105 24-10-2021 10:40:00 2.2 C 97 % 1.77 C
106 24-10-2021 10:45:00 2.3 C 97 % 1.87 C
107 24-10-2021 10:50:00 2.5 C 97 % 2.07 C
108 24-10-2021 10:55:00 2.7 C 97 % 2.27 C
109 24-10-2021 11:00:00 2.8 C 97 % 2.37 C
110 24-10-2021 11:05:00 2.9 C 97 % 2.47 C
111 24-10-2021 11:10:00 3 C 97 % 2.57 C
112 24-10-2021 11:15:00 3.1 C 97 % 2.67 C
113 24-10-2021 11:20:00 3.1 C 97 % 2.67 C
114 24-10-2021 11:25:00 3.2 C 97 % 2.77 C
115 24-10-2021 11:30:00 3.3 C 97 % 2.87 C
116 24-10-2021 11:35:00 3.5 C 97 % 3.07 C
117 24-10-2021 11:40:00 3.7 C 97 % 3.27 C
118 24-10-2021 11:45:00 3.8 C 97 % 3.37 C
119 24-10-2021 11:50:00 4.1 C 97 % 3.67 C
120 24-10-2021 11:55:00 4.3 C 97 % 3.87 C
121 24-10-2021 12:00:00 4.4 C 97 % 3.97 C
122 24-10-2021 12:05:00 4.6 C 97 % 4.17 C
123 24-10-2021 12:10:00 4.7 C 97 % 4.27 C
124 24-10-2021 12:15:00 4.9 C 97 % 4.46 C
125 24-10-2021 12:20:00 5.1 C 97 % 4.66 C
Sensor: Nr:Datum:Temp:Feuchte:Taupunkt:
Aussen-T/F 126 24-10-2021 12:25:00 5.3 C 97 % 4.86 C
127 24-10-2021 12:30:00 5.5 C 97 % 5.06 C
128 24-10-2021 12:35:00 5.6 C 97 % 5.16 C
129 24-10-2021 12:40:00 5.8 C 97 % 5.36 C
130 24-10-2021 12:45:00 6.1 C 97 % 5.66 C
131 24-10-2021 12:50:00 6.4 C 98 % 6.11 C
132 24-10-2021 12:55:00 6.6 C 98 % 6.31 C
133 24-10-2021 13:00:00 6.7 C 98 % 6.41 C
134 24-10-2021 13:05:00 6.9 C 98 % 6.61 C
135 24-10-2021 13:10:00 7.1 C 98 % 6.81 C
136 24-10-2021 13:15:00 7.3 C 98 % 7.01 C
137 24-10-2021 13:20:00 7.4 C 98 % 7.11 C
138 24-10-2021 13:25:00 7.6 C 98 % 7.3 C
139 24-10-2021 13:30:00 7.7 C 98 % 7.4 C
140 24-10-2021 13:35:00 7.9 C 98 % 7.6 C
141 24-10-2021 13:40:00 8 C 98 % 7.7 C
142 24-10-2021 13:45:00 8.2 C 98 % 7.9 C
143 24-10-2021 13:50:00 8.3 C 98 % 8 C
144 24-10-2021 13:55:00 8.4 C 98 % 8.1 C
145 24-10-2021 14:00:00 8.5 C 98 % 8.2 C
146 24-10-2021 14:05:00 8.6 C 98 % 8.3 C
147 24-10-2021 14:10:00 8.6 C 98 % 8.3 C
148 24-10-2021 14:15:00 8.7 C 98 % 8.4 C
149 24-10-2021 14:20:00 8.8 C 97 % 8.35 C
150 24-10-2021 14:25:00 8.9 C 98 % 8.6 C
Sensor: Nr:Datum:Temp:Feuchte:Taupunkt:
Aussen-T/F 151 24-10-2021 14:30:00 9.1 C 97 % 8.65 C
152 24-10-2021 14:35:00 9.2 C 97 % 8.75 C
153 24-10-2021 14:40:00 9.1 C 97 % 8.65 C
154 24-10-2021 14:45:00 9.2 C 96 % 8.6 C
155 24-10-2021 14:50:00 9.4 C 96 % 8.8 C
156 24-10-2021 14:55:00 9.6 C 95 % 8.84 C
157 24-10-2021 15:00:00 9.7 C 94 % 8.78 C
158 24-10-2021 15:05:00 9.7 C 93 % 8.62 C
159 24-10-2021 15:10:00 9.8 C 92 % 8.56 C
160 24-10-2021 15:15:00 10.1 C 91 % 8.7 C
161 24-10-2021 15:20:00 10.3 C 91 % 8.9 C
162 24-10-2021 15:25:00 10.4 C 90 % 8.83 C
163 24-10-2021 15:30:00 10.6 C 86 % 8.36 C
164 24-10-2021 15:35:00 10.8 C 83 % 8.03 C
165 24-10-2021 15:40:00 11.2 C 84 % 8.6 C
166 24-10-2021 15:45:00 11.3 C 85 % 8.87 C
167 24-10-2021 15:50:00 11.5 C 79 % 7.99 C
168 24-10-2021 15:55:00 11.7 C 81 % 8.55 C
169 24-10-2021 16:00:00 11.9 C 82 % 8.93 C
170 24-10-2021 16:05:00 12.1 C 79 % 8.57 C
171 24-10-2021 16:10:00 12.3 C 75 % 8 C
172 24-10-2021 16:15:00 12.6 C 80 % 9.25 C
173 24-10-2021 16:20:00 12.7 C 78 % 8.97 C
174 24-10-2021 16:25:00 12.6 C 77 % 8.68 C
175 24-10-2021 16:30:00 12.6 C 77 % 8.68 C
Sensor: Nr:Datum:Temp:Feuchte:Taupunkt:
Aussen-T/F 176 24-10-2021 16:35:00 12.7 C 79 % 9.16 C
177 24-10-2021 16:40:00 12.7 C 78 % 8.97 C
178 24-10-2021 16:45:00 12.6 C 79 % 9.06 C
179 24-10-2021 16:50:00 12.4 C 77 % 8.49 C
180 24-10-2021 16:55:00 12.4 C 79 % 8.86 C
181 24-10-2021 17:00:00 12.2 C 80 % 8.86 C
182 24-10-2021 17:05:00 12.1 C 81 % 8.94 C
183 24-10-2021 17:10:00 11.9 C 81 % 8.75 C
184 24-10-2021 17:15:00 11.8 C 81 % 8.65 C
185 24-10-2021 17:20:00 11.6 C 82 % 8.64 C
186 24-10-2021 17:25:00 11.4 C 83 % 8.62 C
187 24-10-2021 17:30:00 11.3 C 83 % 8.52 C
188 24-10-2021 17:35:00 11.1 C 83 % 8.33 C
189 24-10-2021 17:40:00 11 C 84 % 8.4 C
190 24-10-2021 17:45:00 10.9 C 84 % 8.31 C
191 24-10-2021 17:50:00 10.9 C 84 % 8.31 C
192 24-10-2021 17:55:00 10.8 C 84 % 8.21 C
193 24-10-2021 18:00:00 10.6 C 84 % 8.01 C
194 24-10-2021 18:05:00 10.4 C 84 % 7.82 C
195 24-10-2021 18:10:00 10.2 C 84 % 7.62 C
196 24-10-2021 18:15:00 9.8 C 84 % 7.23 C
197 24-10-2021 18:20:00 9.4 C 85 % 7.01 C
198 24-10-2021 18:25:00 9.1 C 85 % 6.72 C
199 24-10-2021 18:30:00 8.7 C 86 % 6.49 C
200 24-10-2021 18:35:00 8.3 C 87 % 6.27 C
Sensor: Nr:Datum:Temp:Feuchte:Taupunkt:
Aussen-T/F 201 24-10-2021 18:40:00 8.1 C 87 % 6.07 C
202 24-10-2021 18:45:00 7.8 C 88 % 5.94 C
203 24-10-2021 18:50:00 7.6 C 89 % 5.91 C
204 24-10-2021 18:55:00 7.4 C 89 % 5.71 C
205 24-10-2021 19:00:00 7.2 C 90 % 5.67 C
206 24-10-2021 19:05:00 7.1 C 90 % 5.57 C
207 24-10-2021 19:10:00 6.9 C 91 % 5.54 C
208 24-10-2021 19:15:00 6.8 C 91 % 5.44 C
209 24-10-2021 19:20:00 6.7 C 91 % 5.34 C
210 24-10-2021 19:25:00 6.6 C 92 % 5.4 C
211 24-10-2021 19:30:00 6.6 C 92 % 5.4 C
212 24-10-2021 19:35:00 6.4 C 92 % 5.2 C
213 24-10-2021 19:40:00 6.4 C 92 % 5.2 C
214 24-10-2021 19:45:00 6.4 C 92 % 5.2 C
215 24-10-2021 19:50:00 6.3 C 93 % 5.25 C
216 24-10-2021 19:55:00 6.2 C 93 % 5.15 C
217 24-10-2021 20:00:00 6.2 C 93 % 5.15 C
218 24-10-2021 20:05:00 6.2 C 94 % 5.31 C
219 24-10-2021 20:10:00 6.2 C 94 % 5.31 C
220 24-10-2021 20:15:00 6.2 C 94 % 5.31 C
221 24-10-2021 20:20:00 6.2 C 94 % 5.31 C
222 24-10-2021 20:25:00 6.2 C 94 % 5.31 C
223 24-10-2021 20:30:00 6.1 C 94 % 5.21 C
224 24-10-2021 20:35:00 6.2 C 94 % 5.31 C
225 24-10-2021 20:40:00 6.2 C 94 % 5.31 C
Sensor: Nr:Datum:Temp:Feuchte:Taupunkt:
Aussen-T/F 226 24-10-2021 20:45:00 6.2 C 94 % 5.31 C
227 24-10-2021 20:50:00 6.2 C 94 % 5.31 C
228 24-10-2021 20:55:00 6.2 C 94 % 5.31 C
229 24-10-2021 21:00:00 6.1 C 94 % 5.21 C
230 24-10-2021 21:05:00 6.1 C 94 % 5.21 C
231 24-10-2021 21:10:00 6.1 C 94 % 5.21 C
232 24-10-2021 21:15:00 6.1 C 95 % 5.36 C
233 24-10-2021 21:20:00 6.1 C 94 % 5.21 C
234 24-10-2021 21:25:00 5.9 C 94 % 5.01 C
235 24-10-2021 21:30:00 5.8 C 94 % 4.91 C
236 24-10-2021 21:35:00 5.7 C 94 % 4.81 C
237 24-10-2021 21:40:00 5.6 C 94 % 4.71 C
238 24-10-2021 21:45:00 5.4 C 94 % 4.51 C
239 24-10-2021 21:50:00 5.4 C 94 % 4.51 C
240 24-10-2021 21:55:00 5.3 C 94 % 4.41 C
241 24-10-2021 22:00:00 5.2 C 94 % 4.32 C
242 24-10-2021 22:05:00 5.1 C 94 % 4.22 C
243 24-10-2021 22:10:00 4.9 C 94 % 4.02 C
244 24-10-2021 22:15:00 4.9 C 94 % 4.02 C
245 24-10-2021 22:20:00 4.9 C 94 % 4.02 C
246 24-10-2021 22:25:00 4.8 C 94 % 3.92 C
247 24-10-2021 22:30:00 4.7 C 94 % 3.82 C
248 24-10-2021 22:35:00 4.6 C 94 % 3.72 C
249 24-10-2021 22:40:00 4.6 C 94 % 3.72 C
250 24-10-2021 22:45:00 4.4 C 94 % 3.52 C
Sensor: Nr:Datum:Temp:Feuchte:Taupunkt:
Aussen-T/F 251 24-10-2021 22:50:00 4.3 C 94 % 3.42 C
252 24-10-2021 22:55:00 4.3 C 94 % 3.42 C
253 24-10-2021 23:00:00 4.2 C 94 % 3.32 C
254 24-10-2021 23:05:00 4.1 C 94 % 3.22 C
255 24-10-2021 23:10:00 4 C 94 % 3.12 C
256 24-10-2021 23:15:00 3.9 C 94 % 3.02 C
257 24-10-2021 23:20:00 3.9 C 94 % 3.02 C
258 24-10-2021 23:25:00 3.9 C 95 % 3.17 C
259 24-10-2021 23:30:00 3.9 C 95 % 3.17 C
260 24-10-2021 23:35:00 3.8 C 94 % 2.93 C
261 24-10-2021 23:40:00 3.7 C 94 % 2.83 C
262 24-10-2021 23:45:00 3.7 C 95 % 2.98 C
263 24-10-2021 23:50:00 3.6 C 95 % 2.88 C
264 24-10-2021 23:55:00 3.6 C 95 % 2.88 C
265 25-10-2021 00:00:00 3.6 C 95 % 2.88 C
266 25-10-2021 00:05:00 3.6 C 95 % 2.88 C
267 25-10-2021 00:10:00 3.6 C 95 % 2.88 C
268 25-10-2021 00:15:00 3.4 C 95 % 2.68 C
269 25-10-2021 00:20:00 3.3 C 95 % 2.58 C
270 25-10-2021 00:25:00 3.2 C 95 % 2.48 C
271 25-10-2021 00:30:00 3.2 C 95 % 2.48 C
272 25-10-2021 00:35:00 3.1 C 95 % 2.38 C
273 25-10-2021 00:40:00 3.1 C 95 % 2.38 C
274 25-10-2021 00:45:00 3 C 95 % 2.28 C
275 25-10-2021 00:50:00 3 C 95 % 2.28 C
Sensor: Nr:Datum:Temp:Feuchte:Taupunkt:
Aussen-T/F 276 25-10-2021 00:55:00 3 C 95 % 2.28 C

Legende:
   Min
   Max


Maximal/Minimal-Werte vom 24.10.2021 - 25.10.2021

Sensor Min Max Avg
Temp
(Aussen-T/F)
1.5 °C
24-10-2021  09:05:00
12.7 °C
24-10-2021  16:20:00
5.53 °C
Feuchte
(Aussen-T/F)
75 %
24-10-2021  16:10:00
98 %
24-10-2021  12:50:00
93.53 %
Taupunkt
(Aussen-T/F)
0.93 C
24-10-2021  09:05:00
9.25 C
24-10-2021  16:15:00
4.51 C

Die Daten stammen von einer Davis Vantage Pro 2 Wetter-Station und werden unter Linux mit der Software wview2wettercgi und aufbereitet. Alle Angaben erfolgen ohne Gewähr für ihre Vollständigkeit oder Richtigkeit.
Kontakt: Rainer Krienke krienke@uni-koblenz.de . Meine Webseiten an der Uni Koblenz oder privat.
Version: $Revision: 0.78 $